This is the latest recevied weather packets stored in our database for station/object WE1C. If no packets are shown the sender has not sent any weather packets the latest 10 day(s).
| Time | Temp. | Humidity | Pressure | Rain* | Wind** | Luminosity | Snow |
|---|---|---|---|---|---|---|---|
| 1787941311 | 26.67° C | 70% | 1044.7 hPa | 0 mm | - | 676 W/m² | - |
| 1787941010 | 26.11° C | 74% | 1044.5 hPa | 0 mm | - | 258 W/m² | - |
| 1787940709 | 27.22° C | 72% | 1044.5 hPa | 0 mm | - | 151 W/m² | - |
| 1787940408 | 27.22° C | 70% | 1044.4 hPa | 0 mm | - | 237 W/m² | - |
| 1787940102 | 26.67° C | 72% | 1044.5 hPa | 0 mm | - | 665 W/m² | - |
| 1787939797 | 27.22° C | 71% | 1044.5 hPa | 0 mm | - | 260 W/m² | - |
| 1787939496 | 26.67° C | 70% | 1044.5 hPa | 0 mm | - | 776 W/m² | - |
| 1787939192 | 25.56° C | 75% | 1044.5 hPa | 0 mm | - | 745 W/m² | - |
| 1787938891 | 26.67° C | 74% | 1044.5 hPa | 0 mm | - | 191 W/m² | - |
| 1787938591 | 26.67° C | 74% | 1044.4 hPa | 0 mm | - | 892 W/m² | - |
| 1787938286 | 25.56° C | 75% | 1044.6 hPa | 0 mm | - | 273 W/m² | - |
| 1787937981 | 26.11° C | 74% | 1044.7 hPa | 0 mm | - | 225 W/m² | - |
| 1787937676 | 26.11° C | 73% | 1044.4 hPa | 0 mm | - | 494 W/m² | - |
| 1787937373 | 25.56° C | 78% | 1044.7 hPa | 0 mm | - | 249 W/m² | - |
| 1787937069 | 25.56° C | 77% | 1044.6 hPa | 0 mm | - | 253 W/m² | - |
| 1787936769 | 26.11° C | 75% | 1044.8 hPa | 0 mm | - | 198 W/m² | - |
| 1787936463 | 26.67° C | 72% | 1044.9 hPa | 0 mm | - | 346 W/m² | - |
| 1787936162 | 26.11° C | 75% | 1044.8 hPa | 0 mm | - | 819 W/m² | - |
| 1787935858 | 26.11° C | 75% | 1044.8 hPa | 0 mm | - | 314 W/m² | - |
| 1787935554 | 25.56° C | 78% | 1044.9 hPa | 0 mm | - | 803 W/m² | - |
| 1787935250 | 25.56° C | 79% | 1044.7 hPa | 0 mm | - | 845 W/m² | - |
| 1787934945 | 25.56° C | 79% | 1044.8 hPa | 0 mm | - | 780 W/m² | - |
| 1787934640 | 25.56° C | 78% | 1044.8 hPa | 0 mm | - | 276 W/m² | - |
| 1787934339 | 25.56° C | 78% | 1045 hPa | 0 mm | - | 504 W/m² | - |
| 1787934039 | 25.56° C | 82% | 1045 hPa | 0 mm | - | 866 W/m² | - |
* Rain latest hour (hover to see other rain measurements)
** Current wind speed in m/s (hover to see current wind gust speed)